sensor_id;sensor_type;location;lat;lon;timestamp;temperature;humidity
17529;DHT22;8882;53.192;8.184;2023-02-11T08:01:01;7.20;99.90
17529;DHT22;8882;53.192;8.184;2023-02-11T08:03:27;7.20;99.90
17529;DHT22;8882;53.192;8.184;2023-02-11T08:05:52;7.20;99.90
17529;DHT22;8882;53.192;8.184;2023-02-11T08:08:18;7.20;99.90
17529;DHT22;8882;53.192;8.184;2023-02-11T08:10:43;7.20;99.90
17529;DHT22;8882;53.192;8.184;2023-02-11T08:13:09;7.30;99.90
17529;DHT22;8882;53.192;8.184;2023-02-11T08:15:34;7.30;99.90
17529;DHT22;8882;53.192;8.184;2023-02-11T08:18:00;7.30;99.90
17529;DHT22;8882;53.192;8.184;2023-02-11T08:20:25;7.20;99.90
17529;DHT22;8882;53.192;8.184;2023-02-11T08:22:51;7.30;99.90
17529;DHT22;8882;53.192;8.184;2023-02-11T08:25:16;7.30;99.90
17529;DHT22;8882;53.192;8.184;2023-02-11T08:27:42;7.30;99.90
17529;DHT22;8882;53.192;8.184;2023-02-11T08:30:08;7.30;99.90
17529;DHT22;8882;53.192;8.184;2023-02-11T08:32:34;7.30;99.90
17529;DHT22;8882;53.192;8.184;2023-02-11T08:35:00;7.30;99.90
17529;DHT22;8882;53.192;8.184;2023-02-11T08:37:25;7.30;99.90
17529;DHT22;8882;53.192;8.184;2023-02-11T08:39:51;7.30;99.90
17529;DHT22;8882;53.192;8.184;2023-02-11T08:42:17;7.30;99.90
17529;DHT22;8882;53.192;8.184;2023-02-11T08:44:42;7.30;99.90
17529;DHT22;8882;53.192;8.184;2023-02-11T08:47:08;7.30;99.90
17529;DHT22;8882;53.192;8.184;2023-02-11T08:49:33;7.40;99.90
17529;DHT22;8882;53.192;8.184;2023-02-11T08:51:59;7.40;99.90
17529;DHT22;8882;53.192;8.184;2023-02-11T08:54:29;7.40;99.90
17529;DHT22;8882;53.192;8.184;2023-02-11T08:56:54;7.40;99.90
17529;DHT22;8882;53.192;8.184;2023-02-11T08:59:20;7.40;99.90
17529;DHT22;8882;53.192;8.184;2023-02-11T09:01:46;7.40;99.90
17529;DHT22;8882;53.192;8.184;2023-02-11T09:04:12;7.40;99.90
17529;DHT22;8882;53.192;8.184;2023-02-11T09:06:38;7.40;99.90
17529;DHT22;8882;53.192;8.184;2023-02-11T09:09:03;7.30;99.90
17529;DHT22;8882;53.192;8.184;2023-02-11T09:11:32;7.40;99.90
17529;DHT22;8882;53.192;8.184;2023-02-11T09:13:58;7.40;99.90
17529;DHT22;8882;53.192;8.184;2023-02-11T09:16:26;7.40;99.90
17529;DHT22;8882;53.192;8.184;2023-02-11T09:18:52;7.40;99.90
17529;DHT22;8882;53.192;8.184;2023-02-11T09:21:19;7.40;99.90
17529;DHT22;8882;53.192;8.184;2023-02-11T09:23:44;7.40;99.90
17529;DHT22;8882;53.192;8.184;2023-02-11T09:26:15;7.40;99.90
17529;DHT22;8882;53.192;8.184;2023-02-11T09:28:40;7.40;99.90
17529;DHT22;8882;53.192;8.184;2023-02-11T09:31:08;7.40;99.90
17529;DHT22;8882;53.192;8.184;2023-02-11T09:33:34;7.40;99.90
17529;DHT22;8882;53.192;8.184;2023-02-11T09:36:01;7.40;99.90
17529;DHT22;8882;53.192;8.184;2023-02-11T09:38:27;7.40;99.90
17529;DHT22;8882;53.192;8.184;2023-02-11T09:40:53;7.40;99.90
17529;DHT22;8882;53.192;8.184;2023-02-11T09:43:30;7.40;99.90
17529;DHT22;8882;53.192;8.184;2023-02-11T09:45:57;7.40;99.90
17529;DHT22;8882;53.192;8.184;2023-02-11T09:48:23;7.40;99.90
17529;DHT22;8882;53.192;8.184;2023-02-11T09:50:55;7.40;99.90
17529;DHT22;8882;53.192;8.184;2023-02-11T09:53:26;7.40;99.90
17529;DHT22;8882;53.192;8.184;2023-02-11T09:55:54;7.40;99.90
17529;DHT22;8882;53.192;8.184;2023-02-11T09:58:32;7.40;99.90
17529;DHT22;8882;53.192;8.184;2023-02-11T10:01:13;7.40;99.90
17529;DHT22;8882;53.192;8.184;2023-02-11T10:03:59;7.40;99.90
17529;DHT22;8882;53.192;8.184;2023-02-11T10:06:40;7.40;99.90
17529;DHT22;8882;53.192;8.184;2023-02-11T10:09:16;7.40;99.90
17529;DHT22;8882;53.192;8.184;2023-02-11T10:11:57;7.40;99.90
17529;DHT22;8882;53.192;8.184;2023-02-11T10:23:09;7.50;99.90
17529;DHT22;8882;53.192;8.184;2023-02-11T10:25:41;7.60;99.90
17529;DHT22;8882;53.192;8.184;2023-02-11T10:28:12;7.60;99.90
17529;DHT22;8882;53.192;8.184;2023-02-11T10:31:06;7.60;99.90
17529;DHT22;8882;53.192;8.184;2023-02-11T10:36:06;7.60;99.90
17529;DHT22;8882;53.192;8.184;2023-02-11T10:38:31;7.60;99.90
17529;DHT22;8882;53.192;8.184;2023-02-11T10:40:58;7.60;99.90
17529;DHT22;8882;53.192;8.184;2023-02-11T10:43:26;7.60;99.90
17529;DHT22;8882;53.192;8.184;2023-02-11T10:45:54;7.70;99.90
17529;DHT22;8882;53.192;8.184;2023-02-11T10:48:42;7.70;99.90
17529;DHT22;8882;53.192;8.184;2023-02-11T10:51:16;7.70;99.90
17529;DHT22;8882;53.192;8.184;2023-02-11T10:53:42;7.70;99.90
17529;DHT22;8882;53.192;8.184;2023-02-11T10:56:11;7.70;99.90
17529;DHT22;8882;53.192;8.184;2023-02-11T10:58:54;7.80;99.90
17529;DHT22;8882;53.192;8.184;2023-02-11T11:01:20;7.80;99.90
17529;DHT22;8882;53.192;8.184;2023-02-11T11:03:48;7.80;99.90
17529;DHT22;8882;53.192;8.184;2023-02-11T11:06:15;7.80;99.90
17529;DHT22;8882;53.192;8.184;2023-02-11T11:08:47;7.80;99.90
17529;DHT22;8882;53.192;8.184;2023-02-11T11:11:16;7.80;99.90
17529;DHT22;8882;53.192;8.184;2023-02-11T11:13:58;7.90;99.90
17529;DHT22;8882;53.192;8.184;2023-02-11T11:16:25;7.90;99.90
17529;DHT22;8882;53.192;8.184;2023-02-11T11:19:13;7.90;99.90
17529;DHT22;8882;53.192;8.184;2023-02-11T11:21:43;7.90;99.90
17529;DHT22;8882;53.192;8.184;2023-02-11T11:24:32;7.90;99.90
17529;DHT22;8882;53.192;8.184;2023-02-11T11:27:01;8.00;99.90
17529;DHT22;8882;53.192;8.184;2023-02-11T11:29:48;8.00;99.90
17529;DHT22;8882;53.192;8.184;2023-02-11T11:32:29;8.10;99.90
17529;DHT22;8882;53.192;8.184;2023-02-11T11:35:00;8.40;99.90
17529;DHT22;8882;53.192;8.184;2023-02-11T11:37:29;8.40;99.90
17529;DHT22;8882;53.192;8.184;2023-02-11T11:40:16;8.40;99.90
17529;DHT22;8882;53.192;8.184;2023-02-11T11:43:03;8.40;99.90
17529;DHT22;8882;53.192;8.184;2023-02-11T11:45:29;8.30;99.90
17529;DHT22;8882;53.192;8.184;2023-02-11T11:48:48;8.30;99.90
17529;DHT22;8882;53.192;8.184;2023-02-11T11:50:52;8.20;99.90
17529;DHT22;8882;53.192;8.184;2023-02-11T11:53:28;8.20;99.90
17529;DHT22;8882;53.192;8.184;2023-02-11T11:56:02;8.20;99.90
17529;DHT22;8882;53.192;8.184;2023-02-11T11:58:30;8.20;99.90
17529;DHT22;8882;53.192;8.184;2023-02-11T12:07:06;8.20;99.90
17529;DHT22;8882;53.192;8.184;2023-02-11T12:09:59;8.20;99.90
17529;DHT22;8882;53.192;8.184;2023-02-11T12:15:46;8.20;99.90
17529;DHT22;8882;53.192;8.184;2023-02-11T12:24:11;8.30;99.90
17529;DHT22;8882;53.192;8.184;2023-02-11T12:26:45;8.40;99.90
17529;DHT22;8882;53.192;8.184;2023-02-11T12:29:26;8.50;99.90
17529;DHT22;8882;53.192;8.184;2023-02-11T12:32:11;8.50;99.90
17529;DHT22;8882;53.192;8.184;2023-02-11T12:40:16;9.00;99.90
17529;DHT22;8882;53.192;8.184;2023-02-11T12:43:13;9.00;99.90
17529;DHT22;8882;53.192;8.184;2023-02-11T13:00:25;8.90;99.90
17529;DHT22;8882;53.192;8.184;2023-02-11T13:03:14;8.90;99.90
17529;DHT22;8882;53.192;8.184;2023-02-11T13:05:48;8.90;99.90
17529;DHT22;8882;53.192;8.184;2023-02-11T13:08:16;9.00;99.90
17529;DHT22;8882;53.192;8.184;2023-02-11T13:10:51;9.00;99.90
17529;DHT22;8882;53.192;8.184;2023-02-11T13:13:20;9.00;99.90
17529;DHT22;8882;53.192;8.184;2023-02-11T13:15:52;9.00;99.90
17529;DHT22;8882;53.192;8.184;2023-02-11T13:24:08;9.00;99.90
17529;DHT22;8882;53.192;8.184;2023-02-11T13:26:46;9.00;99.90
17529;DHT22;8882;53.192;8.184;2023-02-11T13:29:22;9.00;99.90
17529;DHT22;8882;53.192;8.184;2023-02-11T13:32:09;8.90;99.90
17529;DHT22;8882;53.192;8.184;2023-02-11T13:37:36;8.90;99.90
17529;DHT22;8882;53.192;8.184;2023-02-11T13:40:06;8.90;99.90
17529;DHT22;8882;53.192;8.184;2023-02-11T13:42:50;8.90;99.90
17529;DHT22;8882;53.192;8.184;2023-02-11T13:45:17;9.00;99.90
17529;DHT22;8882;53.192;8.184;2023-02-11T13:47:59;9.00;99.90
17529;DHT22;8882;53.192;8.184;2023-02-11T13:50:26;9.00;99.90
17529;DHT22;8882;53.192;8.184;2023-02-11T13:53:00;9.00;99.90
17529;DHT22;8882;53.192;8.184;2023-02-11T13:55:27;9.00;99.90
17529;DHT22;8882;53.192;8.184;2023-02-11T14:14:21;9.10;99.90
17529;DHT22;8882;53.192;8.184;2023-02-11T14:22:04;9.10;99.90
17529;DHT22;8882;53.192;8.184;2023-02-11T14:30:23;9.00;99.90
17529;DHT22;8882;53.192;8.184;2023-02-11T14:35:59;9.00;99.90
17529;DHT22;8882;53.192;8.184;2023-02-11T14:41:26;9.10;99.90
17529;DHT22;8882;53.192;8.184;2023-02-11T14:44:03;9.10;99.90
17529;DHT22;8882;53.192;8.184;2023-02-11T14:46:29;9.10;99.90
17529;DHT22;8882;53.192;8.184;2023-02-11T14:48:59;9.10;99.90
17529;DHT22;8882;53.192;8.184;2023-02-11T14:51:30;9.10;99.90
17529;DHT22;8882;53.192;8.184;2023-02-11T14:54:20;9.10;99.90
17529;DHT22;8882;53.192;8.184;2023-02-11T14:57:13;9.10;99.90
17529;DHT22;8882;53.192;8.184;2023-02-11T15:00:03;9.10;99.90
17529;DHT22;8882;53.192;8.184;2023-02-11T15:02:36;9.10;99.90
17529;DHT22;8882;53.192;8.184;2023-02-11T15:05:23;9.10;99.90
17529;DHT22;8882;53.192;8.184;2023-02-11T15:07:54;9.10;99.90
17529;DHT22;8882;53.192;8.184;2023-02-11T15:12:53;9.20;99.90
17529;DHT22;8882;53.192;8.184;2023-02-11T15:15:19;9.10;99.90
17529;DHT22;8882;53.192;8.184;2023-02-11T15:17:45;9.10;99.90
17529;DHT22;8882;53.192;8.184;2023-02-11T15:20:37;9.10;99.90
17529;DHT22;8882;53.192;8.184;2023-02-11T15:23:10;9.10;99.90
17529;DHT22;8882;53.192;8.184;2023-02-11T15:25:43;9.00;99.90
17529;DHT22;8882;53.192;8.184;2023-02-11T15:28:22;9.00;99.90
17529;DHT22;8882;53.192;8.184;2023-02-11T15:31:00;9.00;99.90
17529;DHT22;8882;53.192;8.184;2023-02-11T15:33:26;9.00;99.90
17529;DHT22;8882;53.192;8.184;2023-02-11T15:35:55;9.00;99.90
17529;DHT22;8882;53.192;8.184;2023-02-11T15:38:21;9.00;99.90
17529;DHT22;8882;53.192;8.184;2023-02-11T15:40:55;8.90;99.90
17529;DHT22;8882;53.192;8.184;2023-02-11T15:43:21;9.00;99.90
17529;DHT22;8882;53.192;8.184;2023-02-11T15:45:57;9.00;99.90
17529;DHT22;8882;53.192;8.184;2023-02-11T15:48:34;9.00;99.90
17529;DHT22;8882;53.192;8.184;2023-02-11T15:53:55;8.90;99.90
17529;DHT22;8882;53.192;8.184;2023-02-11T15:56:29;8.90;99.90
17529;DHT22;8882;53.192;8.184;2023-02-11T15:58:58;8.90;99.90
17529;DHT22;8882;53.192;8.184;2023-02-11T16:01:33;8.90;99.90
17529;DHT22;8882;53.192;8.184;2023-02-11T16:03:59;8.90;99.90
17529;DHT22;8882;53.192;8.184;2023-02-11T16:06:34;8.80;99.90
17529;DHT22;8882;53.192;8.184;2023-02-11T16:09:04;8.80;99.90
17529;DHT22;8882;53.192;8.184;2023-02-11T16:11:36;8.80;99.90
17529;DHT22;8882;53.192;8.184;2023-02-11T16:17:06;8.70;99.90
17529;DHT22;8882;53.192;8.184;2023-02-11T16:19:34;8.70;99.90
17529;DHT22;8882;53.192;8.184;2023-02-11T16:22:16;8.70;99.90
17529;DHT22;8882;53.192;8.184;2023-02-11T16:24:44;8.70;99.90
17529;DHT22;8882;53.192;8.184;2023-02-11T16:27:27;8.60;99.90
17529;DHT22;8882;53.192;8.184;2023-02-11T16:29:54;8.60;99.90
17529;DHT22;8882;53.192;8.184;2023-02-11T16:32:23;8.60;99.90
17529;DHT22;8882;53.192;8.184;2023-02-11T16:34:50;8.50;99.90
17529;DHT22;8882;53.192;8.184;2023-02-11T16:37:16;8.50;99.90
17529;DHT22;8882;53.192;8.184;2023-02-11T16:39:41;8.50;99.90
17529;DHT22;8882;53.192;8.184;2023-02-11T16:42:07;8.50;99.90
17529;DHT22;8882;53.192;8.184;2023-02-11T16:44:33;8.40;99.90
17529;DHT22;8882;53.192;8.184;2023-02-11T16:46:59;8.40;99.90
17529;DHT22;8882;53.192;8.184;2023-02-11T16:49:39;8.40;99.90
17529;DHT22;8882;53.192;8.184;2023-02-11T16:52:07;8.40;99.90
17529;DHT22;8882;53.192;8.184;2023-02-11T16:54:33;8.30;99.90
17529;DHT22;8882;53.192;8.184;2023-02-11T16:56:59;8.30;99.90
17529;DHT22;8882;53.192;8.184;2023-02-11T16:59:24;8.30;99.90
17529;DHT22;8882;53.192;8.184;2023-02-11T17:01:51;8.20;99.90
17529;DHT22;8882;53.192;8.184;2023-02-11T17:04:35;8.20;99.90
17529;DHT22;8882;53.192;8.184;2023-02-11T17:07:01;8.20;99.90
17529;DHT22;8882;53.192;8.184;2023-02-11T17:09:27;8.50;99.90
17529;DHT22;8882;53.192;8.184;2023-02-11T17:11:52;8.60;99.90
17529;DHT22;8882;53.192;8.184;2023-02-11T17:14:19;8.70;99.90
17529;DHT22;8882;53.192;8.184;2023-02-11T17:19:50;8.90;99.90
17529;DHT22;8882;53.192;8.184;2023-02-11T17:22:15;8.90;99.90
17529;DHT22;8882;53.192;8.184;2023-02-11T17:24:41;8.90;99.90
17529;DHT22;8882;53.192;8.184;2023-02-11T17:27:07;8.80;99.90
17529;DHT22;8882;53.192;8.184;2023-02-11T17:29:33;8.70;99.90
17529;DHT22;8882;53.192;8.184;2023-02-11T17:31:59;8.60;99.90
17529;DHT22;8882;53.192;8.184;2023-02-11T17:34:24;8.60;99.90
17529;DHT22;8882;53.192;8.184;2023-02-11T17:36:50;8.50;99.90
17529;DHT22;8882;53.192;8.184;2023-02-11T17:39:16;8.50;99.90
17529;DHT22;8882;53.192;8.184;2023-02-11T17:41:41;8.40;99.90
17529;DHT22;8882;53.192;8.184;2023-02-11T17:44:07;8.40;99.90
17529;DHT22;8882;53.192;8.184;2023-02-11T17:46:35;8.30;99.90
17529;DHT22;8882;53.192;8.184;2023-02-11T17:49:01;8.40;99.90
17529;DHT22;8882;53.192;8.184;2023-02-11T17:51:29;8.30;99.90
17529;DHT22;8882;53.192;8.184;2023-02-11T17:53:57;8.30;99.90
17529;DHT22;8882;53.192;8.184;2023-02-11T17:56:23;8.30;99.90
17529;DHT22;8882;53.192;8.184;2023-02-11T17:58:48;8.30;99.90
17529;DHT22;8882;53.192;8.184;2023-02-11T18:01:14;8.20;99.90
17529;DHT22;8882;53.192;8.184;2023-02-11T18:03:40;8.20;99.90
17529;DHT22;8882;53.192;8.184;2023-02-11T18:06:06;8.20;99.90
17529;DHT22;8882;53.192;8.184;2023-02-11T18:08:32;8.20;99.90
17529;DHT22;8882;53.192;8.184;2023-02-11T18:10:58;8.20;99.90
17529;DHT22;8882;53.192;8.184;2023-02-11T18:13:25;8.20;99.90
17529;DHT22;8882;53.192;8.184;2023-02-11T18:15:51;8.10;99.90
17529;DHT22;8882;53.192;8.184;2023-02-11T18:18:17;8.10;99.90
17529;DHT22;8882;53.192;8.184;2023-02-11T18:20:42;8.10;99.90
17529;DHT22;8882;53.192;8.184;2023-02-11T18:23:09;8.10;99.90
17529;DHT22;8882;53.192;8.184;2023-02-11T18:25:35;8.10;99.90
17529;DHT22;8882;53.192;8.184;2023-02-11T18:28:01;8.10;99.90
17529;DHT22;8882;53.192;8.184;2023-02-11T18:30:29;8.10;99.90
17529;DHT22;8882;53.192;8.184;2023-02-11T18:32:55;8.10;99.90
17529;DHT22;8882;53.192;8.184;2023-02-11T18:35:21;8.10;99.90
17529;DHT22;8882;53.192;8.184;2023-02-11T18:37:47;8.10;99.90
17529;DHT22;8882;53.192;8.184;2023-02-11T18:40:13;8.10;99.90
17529;DHT22;8882;53.192;8.184;2023-02-11T18:42:39;8.10;99.90
17529;DHT22;8882;53.192;8.184;2023-02-11T18:45:06;8.00;99.90
17529;DHT22;8882;53.192;8.184;2023-02-11T18:47:34;8.10;99.90
17529;DHT22;8882;53.192;8.184;2023-02-11T18:50:00;8.00;99.90
17529;DHT22;8882;53.192;8.184;2023-02-11T18:52:25;8.00;99.90
17529;DHT22;8882;53.192;8.184;2023-02-11T18:54:51;8.00;99.90
17529;DHT22;8882;53.192;8.184;2023-02-11T18:57:16;8.00;99.90
17529;DHT22;8882;53.192;8.184;2023-02-11T18:59:42;8.00;99.90
17529;DHT22;8882;53.192;8.184;2023-02-11T19:02:09;8.10;99.90
17529;DHT22;8882;53.192;8.184;2023-02-11T19:04:35;8.10;99.90
17529;DHT22;8882;53.192;8.184;2023-02-11T19:07:01;8.10;99.90
17529;DHT22;8882;53.192;8.184;2023-02-11T19:09:28;8.10;99.90
17529;DHT22;8882;53.192;8.184;2023-02-11T19:11:54;8.10;99.90
17529;DHT22;8882;53.192;8.184;2023-02-11T19:14:27;8.10;99.90
17529;DHT22;8882;53.192;8.184;2023-02-11T19:16:55;8.10;99.90
17529;DHT22;8882;53.192;8.184;2023-02-11T19:19:23;8.10;99.90
17529;DHT22;8882;53.192;8.184;2023-02-11T19:21:49;8.10;99.90
17529;DHT22;8882;53.192;8.184;2023-02-11T19:24:16;8.10;99.90
17529;DHT22;8882;53.192;8.184;2023-02-11T19:26:44;8.10;99.90
17529;DHT22;8882;53.192;8.184;2023-02-11T19:29:10;8.10;99.90
17529;DHT22;8882;53.192;8.184;2023-02-11T19:31:36;8.10;99.90
17529;DHT22;8882;53.192;8.184;2023-02-11T19:34:02;8.10;99.90
17529;DHT22;8882;53.192;8.184;2023-02-11T19:36:28;8.10;99.90
17529;DHT22;8882;53.192;8.184;2023-02-11T19:38:54;8.10;99.90
17529;DHT22;8882;53.192;8.184;2023-02-11T19:41:21;8.10;99.90
17529;DHT22;8882;53.192;8.184;2023-02-11T19:43:48;8.10;99.90
17529;DHT22;8882;53.192;8.184;2023-02-11T19:46:24;8.10;99.90
17529;DHT22;8882;53.192;8.184;2023-02-11T19:48:50;8.10;99.90
17529;DHT22;8882;53.192;8.184;2023-02-11T19:51:16;8.10;99.90
17529;DHT22;8882;53.192;8.184;2023-02-11T19:53:43;8.10;99.90
17529;DHT22;8882;53.192;8.184;2023-02-11T19:56:09;8.10;99.90
17529;DHT22;8882;53.192;8.184;2023-02-11T19:58:36;8.10;99.90
17529;DHT22;8882;53.192;8.184;2023-02-11T20:01:14;8.10;99.90
17529;DHT22;8882;53.192;8.184;2023-02-11T20:03:40;8.10;99.90
17529;DHT22;8882;53.192;8.184;2023-02-11T20:06:08;8.10;99.90
17529;DHT22;8882;53.192;8.184;2023-02-11T20:08:34;8.00;99.90
17529;DHT22;8882;53.192;8.184;2023-02-11T20:11:09;8.10;99.90
17529;DHT22;8882;53.192;8.184;2023-02-11T20:13:36;8.00;99.90
17529;DHT22;8882;53.192;8.184;2023-02-11T20:16:13;8.10;99.90
17529;DHT22;8882;53.192;8.184;2023-02-11T20:18:41;8.00;99.90
17529;DHT22;8882;53.192;8.184;2023-02-11T20:21:14;8.00;99.90
17529;DHT22;8882;53.192;8.184;2023-02-11T20:23:40;8.10;99.90
17529;DHT22;8882;53.192;8.184;2023-02-11T20:26:10;8.10;99.90
17529;DHT22;8882;53.192;8.184;2023-02-11T20:28:37;8.00;99.90
17529;DHT22;8882;53.192;8.184;2023-02-11T20:31:04;8.00;99.90
17529;DHT22;8882;53.192;8.184;2023-02-11T20:33:30;8.00;99.90
17529;DHT22;8882;53.192;8.184;2023-02-11T20:36:08;8.00;99.90
17529;DHT22;8882;53.192;8.184;2023-02-11T20:38:34;8.00;99.90
17529;DHT22;8882;53.192;8.184;2023-02-11T20:41:08;8.00;99.90
17529;DHT22;8882;53.192;8.184;2023-02-11T20:43:39;8.00;99.90
17529;DHT22;8882;53.192;8.184;2023-02-11T20:46:07;8.00;99.90
17529;DHT22;8882;53.192;8.184;2023-02-11T20:48:33;8.00;99.90
17529;DHT22;8882;53.192;8.184;2023-02-11T20:51:08;8.00;99.90
17529;DHT22;8882;53.192;8.184;2023-02-11T20:53:35;8.00;99.90
17529;DHT22;8882;53.192;8.184;2023-02-11T20:56:02;7.90;99.90
17529;DHT22;8882;53.192;8.184;2023-02-11T20:58:28;8.00;99.90
17529;DHT22;8882;53.192;8.184;2023-02-11T21:00:53;7.90;99.90
17529;DHT22;8882;53.192;8.184;2023-02-11T21:03:19;7.90;99.90
17529;DHT22;8882;53.192;8.184;2023-02-11T21:05:44;7.90;99.90
17529;DHT22;8882;53.192;8.184;2023-02-11T21:08:10;7.90;99.90
17529;DHT22;8882;53.192;8.184;2023-02-11T21:10:36;7.90;99.90
17529;DHT22;8882;53.192;8.184;2023-02-11T21:13:01;7.90;99.90
17529;DHT22;8882;53.192;8.184;2023-02-11T21:15:28;7.90;99.90
17529;DHT22;8882;53.192;8.184;2023-02-11T21:17:53;7.90;99.90
17529;DHT22;8882;53.192;8.184;2023-02-11T21:20:19;7.90;99.90
17529;DHT22;8882;53.192;8.184;2023-02-11T21:22:44;7.90;99.90
17529;DHT22;8882;53.192;8.184;2023-02-11T21:25:10;7.90;99.90
17529;DHT22;8882;53.192;8.184;2023-02-11T21:27:36;7.90;99.90
17529;DHT22;8882;53.192;8.184;2023-02-11T21:30:02;7.80;99.90
17529;DHT22;8882;53.192;8.184;2023-02-11T21:32:28;7.80;99.90
17529;DHT22;8882;53.192;8.184;2023-02-11T21:34:53;7.80;99.90
17529;DHT22;8882;53.192;8.184;2023-02-11T21:37:19;7.80;99.90
17529;DHT22;8882;53.192;8.184;2023-02-11T21:39:47;7.80;99.90
17529;DHT22;8882;53.192;8.184;2023-02-11T21:42:13;7.80;99.90
17529;DHT22;8882;53.192;8.184;2023-02-11T21:44:38;7.80;99.90
17529;DHT22;8882;53.192;8.184;2023-02-11T21:47:04;7.70;99.90
17529;DHT22;8882;53.192;8.184;2023-02-11T21:49:29;7.70;99.90
17529;DHT22;8882;53.192;8.184;2023-02-11T21:51:55;7.70;99.90
17529;DHT22;8882;53.192;8.184;2023-02-11T21:54:20;7.70;99.90
17529;DHT22;8882;53.192;8.184;2023-02-11T21:56:49;7.70;99.90
17529;DHT22;8882;53.192;8.184;2023-02-11T21:59:14;7.70;99.90
